createdAt,value
2023-01-19T00:01:48.384Z,6.40
2023-01-19T00:04:17.850Z,6.90
2023-01-19T00:06:47.605Z,5.80
2023-01-19T00:09:16.548Z,5.10
2023-01-19T00:11:46.065Z,6.70
2023-01-19T00:14:15.360Z,6.30
2023-01-19T00:16:44.669Z,5.00
2023-01-19T00:19:15.193Z,5.60
2023-01-19T00:21:44.392Z,6.30
2023-01-19T00:26:44.753Z,2.70
2023-01-19T00:29:16.013Z,7.30
2023-01-19T00:31:45.511Z,8.40
2023-01-19T00:34:14.994Z,6.90
2023-01-19T00:36:44.467Z,10.70
2023-01-19T00:39:13.965Z,9.50
2023-01-19T00:42:02.594Z,11.20
2023-01-19T00:44:32.064Z,11.80
2023-01-19T00:47:01.590Z,11.90
2023-01-19T00:49:30.963Z,10.20
2023-01-19T00:52:00.585Z,12.90
2023-01-19T00:54:30.282Z,11.70
2023-01-19T00:56:59.888Z,10.70
2023-01-19T00:59:29.188Z,11.40
2023-01-19T01:01:58.518Z,12.70
2023-01-19T01:04:27.934Z,8.50
2023-01-19T01:06:57.340Z,10.20
2023-01-19T01:09:26.799Z,11.30
2023-01-19T01:11:56.204Z,8.70
2023-01-19T01:17:47.947Z,7.40
2023-01-19T01:20:30.984Z,8.20
2023-01-19T01:23:00.481Z,7.90
2023-01-19T01:25:31.506Z,6.50
2023-01-19T01:28:00.511Z,8.00
2023-01-19T01:32:59.252Z,10.40
2023-01-19T01:35:29.228Z,6.00
2023-01-19T01:38:01.813Z,10.00
2023-01-19T01:40:31.323Z,7.20
2023-01-19T01:43:01.255Z,4.60
2023-01-19T01:45:38.957Z,7.30
2023-01-19T01:48:30.845Z,6.50
2023-01-19T01:51:23.937Z,8.40
2023-01-19T01:54:15.538Z,8.30
2023-01-19T01:56:48.368Z,9.90
2023-01-19T01:59:35.758Z,11.20
2023-01-19T02:02:30.963Z,10.50
2023-01-19T02:05:06.937Z,10.90
2023-01-19T02:08:16.177Z,12.30
2023-01-19T02:11:04.810Z,13.50
2023-01-19T02:13:39.634Z,14.10
2023-01-19T02:16:09.986Z,12.20
2023-01-19T02:18:39.591Z,12.10
2023-01-19T02:21:27.780Z,10.40
2023-01-19T02:23:59.690Z,13.60
2023-01-19T02:26:36.852Z,12.30
2023-01-19T02:29:13.950Z,11.00
2023-01-19T02:31:43.773Z,9.20
2023-01-19T02:34:17.776Z,11.40
2023-01-19T02:36:54.558Z,9.50
2023-01-19T02:39:29.797Z,12.20
2023-01-19T02:42:04.718Z,13.00
2023-01-19T02:44:36.050Z,12.30
2023-01-19T02:47:06.100Z,12.70
2023-01-19T02:49:36.712Z,9.30
2023-01-19T02:52:06.533Z,5.90
2023-01-19T02:54:39.149Z,4.80
2023-01-19T02:57:16.801Z,5.70
2023-01-19T03:00:08.619Z,4.70
2023-01-19T03:02:53.201Z,4.40
2023-01-19T03:05:28.448Z,5.20
2023-01-19T03:11:04.020Z,6.20
2023-01-19T03:13:42.101Z,7.00
2023-01-19T03:16:22.527Z,7.40
2023-01-19T03:19:02.807Z,6.90
2023-01-19T03:21:37.515Z,7.10
2023-01-19T03:24:09.036Z,6.20
2023-01-19T03:26:53.559Z,4.60
2023-01-19T03:29:25.231Z,4.70
2023-01-19T03:31:57.014Z,5.20
2023-01-19T03:34:28.927Z,5.80
2023-01-19T03:37:05.933Z,4.40
2023-01-19T03:39:35.521Z,4.10
2023-01-19T03:42:12.392Z,4.70
2023-01-19T03:44:45.519Z,5.00
2023-01-19T03:47:15.840Z,2.70
2023-01-19T03:49:48.085Z,4.50
2023-01-19T03:52:17.887Z,2.50
2023-01-19T03:54:47.501Z,3.40
2023-01-19T03:57:17.339Z,4.20
2023-01-19T03:59:47.131Z,4.90
2023-01-19T04:02:16.645Z,5.10
2023-01-19T04:04:46.049Z,5.20
2023-01-19T04:07:15.352Z,3.90
2023-01-19T04:09:44.543Z,3.70
2023-01-19T04:12:13.943Z,4.50
2023-01-19T04:14:43.409Z,4.60
2023-01-19T04:17:12.955Z,4.20
2023-01-19T04:19:42.552Z,4.80
2023-01-19T04:22:12.072Z,3.70
2023-01-19T04:24:41.770Z,4.40
2023-01-19T04:27:11.999Z,3.00
2023-01-19T04:29:41.511Z,3.90
2023-01-19T04:32:10.799Z,4.20
2023-01-19T04:37:09.199Z,3.40
2023-01-19T04:42:08.088Z,4.40
2023-01-19T04:44:37.402Z,2.50
2023-01-19T04:47:06.396Z,4.30
2023-01-19T04:49:38.511Z,2.50
2023-01-19T04:52:07.955Z,2.90
2023-01-19T04:54:37.529Z,4.30
2023-01-19T04:57:06.566Z,4.70
2023-01-19T04:59:35.806Z,2.90
2023-01-19T05:02:05.002Z,3.30
2023-01-19T05:04:34.173Z,3.20
2023-01-19T05:07:03.698Z,3.00
2023-01-19T05:09:33.174Z,6.70
2023-01-19T05:12:02.887Z,1.10
2023-01-19T05:14:31.976Z,3.60
2023-01-19T05:17:03.246Z,2.90
2023-01-19T05:19:32.748Z,3.20
2023-01-19T05:22:03.949Z,2.50
2023-01-19T05:24:33.249Z,2.30
2023-01-19T05:29:31.374Z,2.80
2023-01-19T05:32:00.868Z,4.20
2023-01-19T05:34:30.408Z,5.00
2023-01-19T05:37:00.108Z,2.30
2023-01-19T05:39:30.674Z,4.20
2023-01-19T05:41:59.719Z,4.10
2023-01-19T05:44:29.020Z,6.00
2023-01-19T05:49:27.240Z,2.40
2023-01-19T05:51:56.401Z,3.90
2023-01-19T05:54:25.441Z,3.30
2023-01-19T05:56:54.591Z,4.60
2023-01-19T05:59:24.695Z,2.30
2023-01-19T06:01:54.520Z,2.50
2023-01-19T06:04:24.243Z,4.20
2023-01-19T06:06:53.231Z,5.40
2023-01-19T06:09:22.644Z,4.40
2023-01-19T06:11:54.702Z,2.20
2023-01-19T06:14:23.899Z,2.90
2023-01-19T06:16:53.608Z,3.20
2023-01-19T06:19:22.609Z,1.70
2023-01-19T06:21:52.827Z,1.90
2023-01-19T06:24:22.002Z,4.00
2023-01-19T06:26:51.243Z,3.00
2023-01-19T06:29:20.414Z,3.20
2023-01-19T06:31:50.032Z,1.60
2023-01-19T06:34:20.329Z,1.70
2023-01-19T06:36:49.549Z,2.60
2023-01-19T06:41:47.626Z,1.70
2023-01-19T06:46:45.737Z,1.90
2023-01-19T06:49:15.131Z,2.10
2023-01-19T06:51:46.286Z,2.30
2023-01-19T06:54:15.267Z,1.90
2023-01-19T06:56:45.282Z,2.80
2023-01-19T06:59:15.197Z,2.10
2023-01-19T07:01:44.670Z,3.30
2023-01-19T07:04:15.593Z,1.90
2023-01-19T07:06:44.844Z,2.30
2023-01-19T07:11:46.513Z,3.40
2023-01-19T07:16:44.945Z,2.10
2023-01-19T07:21:43.976Z,0.70
2023-01-19T07:24:14.251Z,1.10
2023-01-19T07:26:43.346Z,2.40
2023-01-19T07:29:12.447Z,4.90
2023-01-19T07:31:41.974Z,3.20
2023-01-19T07:34:12.592Z,1.90
2023-01-19T07:36:42.079Z,3.40
2023-01-19T07:39:11.606Z,2.60
2023-01-19T07:41:40.887Z,1.90
2023-01-19T07:46:39.693Z,2.70
2023-01-19T07:49:08.988Z,1.00
2023-01-19T07:51:38.295Z,2.30
2023-01-19T07:56:38.624Z,1.20
2023-01-19T07:59:10.182Z,2.20
2023-01-19T08:01:39.737Z,3.40
2023-01-19T08:06:40.437Z,2.10
2023-01-19T08:09:09.650Z,2.00
2023-01-19T08:14:08.255Z,0.70
2023-01-19T08:16:38.156Z,1.90
2023-01-19T08:19:07.357Z,2.70
2023-01-19T08:24:06.448Z,3.30
2023-01-19T08:26:36.143Z,8.50
2023-01-19T08:29:07.118Z,45.60
2023-01-19T08:31:36.395Z,11.10
2023-01-19T08:34:05.647Z,8.30
2023-01-19T08:36:35.236Z,28.90
2023-01-19T08:41:33.631Z,11.40
2023-01-19T08:44:03.024Z,6.80
2023-01-19T08:46:32.580Z,5.50
2023-01-19T08:49:01.824Z,7.30
2023-01-19T08:54:00.240Z,6.70
2023-01-19T08:59:08.625Z,5.90
2023-01-19T09:01:39.347Z,4.20
2023-01-19T09:04:10.025Z,5.30
2023-01-19T09:06:39.324Z,3.70
2023-01-19T09:09:08.524Z,4.10
2023-01-19T09:11:37.826Z,2.50
2023-01-19T09:16:36.336Z,6.20
2023-01-19T09:19:05.623Z,4.20
2023-01-19T09:21:34.825Z,4.70
2023-01-19T09:26:33.428Z,3.90
2023-01-19T09:29:02.941Z,6.10
2023-01-19T09:31:32.262Z,6.20
2023-01-19T09:34:01.326Z,5.40
2023-01-19T09:36:30.741Z,5.70
2023-01-19T09:39:00.036Z,4.30
2023-01-19T09:41:30.627Z,4.50
2023-01-19T09:44:01.201Z,6.30
2023-01-19T09:46:40.219Z,7.10
2023-01-19T09:49:17.015Z,4.70
2023-01-19T09:51:49.162Z,5.50
2023-01-19T09:54:21.075Z,5.10
2023-01-19T09:56:52.754Z,6.40
2023-01-19T09:59:25.111Z,7.20
2023-01-19T10:02:20.027Z,7.00
2023-01-19T10:04:55.699Z,8.40
2023-01-19T10:07:44.446Z,10.80
2023-01-19T10:10:19.596Z,11.60
2023-01-19T10:13:00.777Z,9.30
2023-01-19T10:15:52.799Z,8.60
2023-01-19T10:18:36.348Z,4.30
2023-01-19T10:21:15.269Z,8.10
2023-01-19T10:24:13.240Z,4.50
2023-01-19T10:26:48.284Z,5.90
2023-01-19T10:31:54.144Z,4.70
2023-01-19T10:34:24.186Z,9.40
2023-01-19T10:37:03.058Z,9.20
2023-01-19T10:39:34.861Z,9.60
2023-01-19T10:42:07.077Z,20.00
2023-01-19T10:44:37.955Z,10.50
2023-01-19T10:47:14.210Z,9.30
2023-01-19T10:49:44.135Z,7.70
2023-01-19T10:52:45.234Z,6.40
2023-01-19T10:55:29.984Z,9.90
2023-01-19T10:58:00.080Z,5.80
2023-01-19T11:00:43.359Z,4.20
2023-01-19T11:03:32.574Z,10.20
2023-01-19T11:06:17.017Z,12.10
2023-01-19T11:08:48.090Z,10.20
2023-01-19T11:11:19.173Z,11.50
2023-01-19T11:14:06.113Z,10.00
2023-01-19T11:16:38.537Z,12.80
2023-01-19T11:19:19.985Z,8.70
2023-01-19T11:21:49.385Z,10.20
2023-01-19T11:24:18.580Z,6.00
2023-01-19T11:26:50.771Z,7.10
2023-01-19T11:29:23.407Z,9.90
2023-01-19T11:31:54.616Z,9.60
2023-01-19T11:34:26.019Z,7.30
2023-01-19T11:37:05.052Z,9.80
2023-01-19T11:39:51.270Z,9.90
2023-01-19T11:42:21.679Z,9.60
2023-01-19T11:45:08.073Z,10.10
2023-01-19T11:47:37.539Z,5.70
2023-01-19T11:50:42.001Z,7.70
2023-01-19T11:53:26.342Z,5.40
2023-01-19T11:56:15.624Z,6.30
2023-01-19T12:02:04.909Z,7.90
2023-01-19T12:04:38.517Z,8.40
2023-01-19T12:07:11.010Z,11.70
2023-01-19T12:09:48.008Z,15.90
2023-01-19T12:12:29.390Z,12.00
2023-01-19T12:15:01.725Z,9.80
2023-01-19T12:17:39.011Z,10.00
2023-01-19T12:20:18.865Z,8.20
2023-01-19T12:22:55.878Z,8.90
2023-01-19T12:25:54.766Z,8.10
2023-01-19T12:28:37.458Z,5.30
2023-01-19T12:31:06.940Z,5.90
2023-01-19T12:33:40.361Z,6.90
2023-01-19T12:36:30.584Z,11.40
2023-01-19T12:39:17.661Z,5.50
2023-01-19T12:41:47.830Z,6.40
2023-01-19T12:44:22.636Z,6.10
2023-01-19T12:46:57.727Z,6.50
2023-01-19T12:49:39.182Z,4.60
2023-01-19T12:52:13.842Z,5.40
2023-01-19T12:54:59.453Z,8.50
2023-01-19T12:57:40.421Z,3.80
2023-01-19T13:03:00.449Z,6.00
2023-01-19T13:05:33.470Z,5.80
2023-01-19T13:08:03.009Z,5.70
2023-01-19T13:11:06.935Z,3.40
2023-01-19T13:13:41.340Z,6.30
2023-01-19T13:16:20.085Z,3.90
2023-01-19T13:18:59.098Z,2.80
2023-01-19T13:21:34.443Z,3.30
2023-01-19T13:24:06.583Z,3.40
2023-01-19T13:26:40.832Z,3.70
2023-01-19T13:29:23.439Z,3.10
2023-01-19T13:31:55.269Z,3.40
2023-01-19T13:34:26.750Z,3.30
2023-01-19T13:36:59.600Z,3.40
2023-01-19T13:39:32.233Z,6.30
2023-01-19T13:42:06.024Z,4.10
2023-01-19T13:44:55.662Z,4.80
2023-01-19T13:47:42.919Z,4.00
2023-01-19T13:50:23.058Z,2.60
2023-01-19T13:52:54.909Z,5.60
2023-01-19T13:55:24.957Z,4.10
2023-01-19T13:57:54.961Z,3.00
2023-01-19T14:00:29.179Z,4.60
2023-01-19T14:03:22.415Z,4.20
2023-01-19T14:05:53.859Z,3.50
2023-01-19T14:08:23.840Z,2.50
2023-01-19T14:10:53.062Z,3.80
2023-01-19T14:13:27.605Z,3.50
2023-01-19T14:15:59.002Z,3.20
2023-01-19T14:18:30.891Z,4.50
2023-01-19T14:21:09.291Z,5.10
2023-01-19T14:23:41.701Z,5.00
2023-01-19T14:26:39.312Z,2.20
2023-01-19T14:29:15.668Z,5.20
2023-01-19T14:32:01.359Z,6.20
2023-01-19T14:34:41.939Z,6.30
2023-01-19T14:37:34.616Z,5.10
2023-01-19T14:40:13.509Z,5.10
2023-01-19T14:42:54.274Z,4.00
2023-01-19T14:48:00.103Z,4.60
2023-01-19T14:50:34.527Z,3.10
2023-01-19T14:53:07.318Z,4.90
2023-01-19T14:55:40.302Z,3.70
2023-01-19T14:58:12.258Z,4.70
2023-01-19T15:00:42.971Z,3.60
2023-01-19T15:03:12.214Z,2.20
2023-01-19T15:05:44.630Z,3.70
2023-01-19T15:08:18.653Z,2.50
2023-01-19T15:10:47.690Z,3.00
2023-01-19T15:13:20.980Z,3.50
2023-01-19T15:15:50.704Z,4.00
2023-01-19T15:18:27.353Z,3.60
2023-01-19T15:21:02.989Z,4.00
2023-01-19T15:23:33.254Z,3.20
2023-01-19T15:26:05.313Z,3.50
2023-01-19T15:28:34.619Z,3.50
2023-01-19T15:31:04.350Z,3.00
2023-01-19T15:33:33.412Z,3.10
2023-01-19T15:38:31.730Z,3.90
2023-01-19T15:41:01.017Z,2.30
2023-01-19T15:43:30.346Z,4.10
2023-01-19T15:46:03.105Z,3.40
2023-01-19T15:48:32.246Z,3.90
2023-01-19T15:53:31.096Z,2.00
2023-01-19T15:56:00.343Z,4.10
2023-01-19T15:58:29.407Z,2.00
2023-01-19T16:03:28.379Z,2.30
2023-01-19T16:06:02.090Z,3.40
2023-01-19T16:08:31.061Z,3.10
2023-01-19T16:13:33.597Z,2.60
2023-01-19T16:16:04.412Z,3.30
2023-01-19T16:18:33.725Z,2.70
2023-01-19T16:21:03.235Z,3.40
2023-01-19T16:23:32.840Z,3.40
2023-01-19T16:26:11.050Z,4.50
2023-01-19T16:28:40.144Z,3.20
2023-01-19T16:33:38.432Z,5.40
2023-01-19T16:36:21.327Z,3.40
2023-01-19T16:38:50.493Z,2.20
2023-01-19T16:41:19.898Z,4.00
2023-01-19T16:43:56.511Z,4.20
2023-01-19T16:46:36.962Z,3.30
2023-01-19T16:49:11.085Z,3.70
2023-01-19T16:51:40.120Z,3.90
2023-01-19T16:56:42.506Z,3.30
2023-01-19T16:59:15.580Z,3.50
2023-01-19T17:01:45.482Z,4.20
2023-01-19T17:04:15.297Z,3.70
2023-01-19T17:06:44.296Z,4.50
2023-01-19T17:09:13.653Z,4.90
2023-01-19T17:11:43.092Z,4.00
2023-01-19T17:14:17.657Z,2.80
2023-01-19T17:16:47.435Z,3.90
2023-01-19T17:19:19.364Z,6.90
2023-01-19T17:21:50.099Z,3.50
2023-01-19T17:24:19.647Z,1.90
2023-01-19T17:26:49.205Z,3.00
2023-01-19T17:29:18.303Z,3.10
2023-01-19T17:31:49.973Z,3.10
2023-01-19T17:34:18.795Z,4.70
2023-01-19T17:36:47.696Z,2.70
2023-01-19T17:41:50.233Z,2.60
2023-01-19T17:44:19.782Z,3.20
2023-01-19T17:46:49.178Z,3.10
2023-01-19T17:49:18.793Z,3.40
2023-01-19T17:51:52.383Z,3.70
2023-01-19T17:54:21.585Z,3.20
2023-01-19T17:56:51.609Z,3.20
2023-01-19T17:59:20.489Z,3.20
2023-01-19T18:01:49.895Z,3.40
2023-01-19T18:04:19.104Z,3.70
2023-01-19T18:06:49.524Z,3.30
2023-01-19T18:09:18.726Z,3.50
2023-01-19T18:11:47.927Z,3.40
2023-01-19T18:14:17.141Z,2.50
2023-01-19T18:16:46.511Z,3.20
2023-01-19T18:19:15.917Z,3.60
2023-01-19T18:21:45.009Z,2.90
2023-01-19T18:24:14.317Z,2.60
2023-01-19T18:26:43.819Z,3.30
2023-01-19T18:29:13.121Z,2.70
2023-01-19T18:31:43.232Z,3.70
2023-01-19T18:34:12.543Z,3.40
2023-01-19T18:36:42.057Z,3.30
2023-01-19T18:39:11.764Z,2.70
2023-01-19T18:41:42.695Z,2.70
2023-01-19T18:44:12.696Z,3.80
2023-01-19T18:46:41.790Z,3.10
2023-01-19T18:49:10.816Z,3.50
2023-01-19T18:54:11.640Z,3.80
2023-01-19T18:56:40.865Z,2.70
2023-01-19T18:59:10.353Z,3.60
2023-01-19T19:01:39.788Z,3.50
2023-01-19T19:04:09.170Z,4.50
2023-01-19T19:06:38.476Z,3.20
2023-01-19T19:09:07.874Z,3.20
2023-01-19T19:11:37.391Z,3.50
2023-01-19T19:14:06.909Z,3.80
2023-01-19T19:16:38.618Z,2.60
2023-01-19T19:19:08.961Z,3.30
2023-01-19T19:21:38.077Z,3.40
2023-01-19T19:24:08.165Z,3.40
2023-01-19T19:26:37.698Z,3.20
2023-01-19T19:29:07.092Z,2.90
2023-01-19T19:31:36.301Z,2.90
2023-01-19T19:34:05.792Z,3.10
2023-01-19T19:36:34.796Z,1.80
2023-01-19T19:39:03.882Z,3.30
2023-01-19T19:41:33.392Z,5.10
2023-01-19T19:44:02.901Z,3.50
2023-01-19T19:46:32.090Z,2.60
2023-01-19T19:49:01.596Z,3.20
2023-01-19T19:51:31.070Z,2.90
2023-01-19T19:54:01.183Z,2.70
2023-01-19T19:56:32.033Z,3.10
2023-01-19T19:59:01.378Z,3.40
2023-01-19T20:01:33.753Z,3.80
2023-01-19T20:04:08.730Z,3.80
2023-01-19T20:09:11.159Z,4.80
2023-01-19T20:11:41.383Z,4.00
2023-01-19T20:14:12.619Z,3.90
2023-01-19T20:16:41.830Z,4.10
2023-01-19T20:19:11.552Z,4.10
2023-01-19T20:21:42.393Z,4.10
2023-01-19T20:24:17.773Z,3.00
2023-01-19T20:26:50.646Z,3.90
2023-01-19T20:29:20.508Z,4.50
2023-01-19T20:31:55.313Z,4.40
2023-01-19T20:34:29.099Z,4.30
2023-01-19T20:36:58.772Z,3.10
2023-01-19T20:39:30.625Z,3.60
2023-01-19T20:42:00.169Z,4.50
2023-01-19T20:44:29.634Z,3.80
2023-01-19T20:46:58.714Z,5.10
2023-01-19T20:49:28.175Z,6.10
2023-01-19T20:51:57.430Z,5.10
2023-01-19T20:54:28.319Z,2.50
2023-01-19T20:56:58.016Z,4.40
2023-01-19T20:59:27.164Z,2.70
2023-01-19T21:01:56.513Z,4.80
2023-01-19T21:04:25.576Z,4.20
2023-01-19T21:06:55.008Z,4.00
2023-01-19T21:09:24.190Z,3.90
2023-01-19T21:11:56.552Z,4.50
2023-01-19T21:14:26.761Z,5.10
2023-01-19T21:16:58.929Z,5.00
2023-01-19T21:19:28.333Z,5.40
2023-01-19T21:21:57.953Z,4.40
2023-01-19T21:24:27.650Z,4.20
2023-01-19T21:26:57.052Z,2.90
2023-01-19T21:29:26.554Z,5.10
2023-01-19T21:31:55.800Z,3.90
2023-01-19T21:34:25.164Z,4.80
2023-01-19T21:36:54.477Z,4.50
2023-01-19T21:39:23.712Z,4.20
2023-01-19T21:41:52.970Z,6.60
2023-01-19T21:44:22.262Z,5.50
2023-01-19T21:46:51.760Z,5.50
2023-01-19T21:49:21.670Z,5.30
2023-01-19T21:51:51.394Z,5.50
2023-01-19T21:54:20.798Z,6.20
2023-01-19T21:56:50.091Z,4.30
2023-01-19T21:59:20.460Z,5.90
2023-01-19T22:01:49.807Z,5.60
2023-01-19T22:04:19.022Z,4.60
2023-01-19T22:06:48.831Z,5.70
2023-01-19T22:09:18.042Z,4.70
2023-01-19T22:11:47.099Z,5.60
2023-01-19T22:14:16.971Z,6.00
2023-01-19T22:16:45.985Z,4.00
2023-01-19T22:19:15.314Z,4.60
2023-01-19T22:21:44.737Z,4.60
2023-01-19T22:24:14.144Z,3.90
2023-01-19T22:26:43.549Z,5.40
2023-01-19T22:29:13.744Z,3.90
2023-01-19T22:31:43.515Z,5.90
2023-01-19T22:34:13.879Z,3.60
2023-01-19T22:36:43.056Z,4.80
2023-01-19T22:39:13.811Z,5.20
2023-01-19T22:41:45.497Z,6.00
2023-01-19T22:44:23.909Z,5.20
2023-01-19T22:46:55.629Z,4.80
2023-01-19T22:49:24.888Z,5.30
2023-01-19T22:51:54.772Z,6.40
2023-01-19T22:54:24.290Z,6.90
2023-01-19T22:56:53.693Z,4.80
2023-01-19T22:59:22.888Z,4.60
2023-01-19T23:01:52.369Z,5.70
2023-01-19T23:04:21.595Z,4.60
2023-01-19T23:06:52.021Z,5.20
2023-01-19T23:09:20.947Z,5.40
2023-01-19T23:11:50.995Z,3.70
2023-01-19T23:14:22.131Z,5.40
2023-01-19T23:16:51.364Z,5.80
2023-01-19T23:19:20.792Z,5.90
2023-01-19T23:21:53.557Z,5.20
2023-01-19T23:24:22.645Z,6.60
2023-01-19T23:26:52.253Z,7.20
2023-01-19T23:29:21.146Z,6.60
2023-01-19T23:34:20.151Z,7.70
2023-01-19T23:36:49.388Z,8.10
2023-01-19T23:39:21.855Z,8.00
2023-01-19T23:41:51.423Z,7.70
2023-01-19T23:44:20.616Z,7.40
2023-01-19T23:46:49.920Z,7.30
2023-01-19T23:49:18.965Z,7.90
2023-01-19T23:54:17.075Z,8.40
2023-01-19T23:56:46.133Z,9.00
2023-01-19T23:59:16.902Z,7.70
